sensor_id;sensor_type;location;lat;lon;timestamp;P1;durP1;ratioP1;P2;durP2;ratioP2
6751;SDS011;3413;47.680;9.166;2023-11-19T02:57:03;1.53;;;0.97;;
6751;SDS011;3413;47.680;9.166;2023-11-19T03:02:07;1.93;;;1.03;;
6751;SDS011;3413;47.680;9.166;2023-11-19T03:07:14;2.80;;;1.30;;
6751;SDS011;3413;47.680;9.166;2023-11-19T16:38:38;1.43;;;0.73;;
6751;SDS011;3413;47.680;9.166;2023-11-19T16:49:20;1.03;;;0.70;;
6751;SDS011;3413;47.680;9.166;2023-11-19T16:54:22;1.60;;;0.70;;
6751;SDS011;3413;47.680;9.166;2023-11-19T16:59:25;2.00;;;1.07;;
6751;SDS011;3413;47.680;9.166;2023-11-19T17:04:28;2.60;;;0.90;;
6751;SDS011;3413;47.680;9.166;2023-11-19T17:09:30;2.30;;;1.10;;
6751;SDS011;3413;47.680;9.166;2023-11-19T17:14:33;1.67;;;0.73;;
6751;SDS011;3413;47.680;9.166;2023-11-19T17:19:41;2.50;;;0.80;;
6751;SDS011;3413;47.680;9.166;2023-11-19T17:24:44;4.60;;;1.40;;
6751;SDS011;3413;47.680;9.166;2023-11-19T17:29:47;1.97;;;1.10;;
6751;SDS011;3413;47.680;9.166;2023-11-19T17:34:49;2.30;;;1.20;;
6751;SDS011;3413;47.680;9.166;2023-11-19T17:39:54;2.03;;;1.03;;
6751;SDS011;3413;47.680;9.166;2023-11-19T17:44:56;4.40;;;2.00;;
6751;SDS011;3413;47.680;9.166;2023-11-19T17:50:00;2.53;;;1.03;;
6751;SDS011;3413;47.680;9.166;2023-11-19T17:55:24;2.13;;;1.23;;
6751;SDS011;3413;47.680;9.166;2023-11-19T18:00:27;2.30;;;1.20;;
6751;SDS011;3413;47.680;9.166;2023-11-19T18:05:29;5.10;;;1.90;;
6751;SDS011;3413;47.680;9.166;2023-11-19T18:10:32;2.90;;;1.50;;
6751;SDS011;3413;47.680;9.166;2023-11-19T18:15:34;3.67;;;1.30;;
6751;SDS011;3413;47.680;9.166;2023-11-19T18:20:38;1.23;;;0.80;;
6751;SDS011;3413;47.680;9.166;2023-11-19T18:25:40;1.40;;;0.80;;
6751;SDS011;3413;47.680;9.166;2023-11-19T18:30:42;5.73;;;1.00;;
6751;SDS011;3413;47.680;9.166;2023-11-19T18:35:45;5.43;;;1.43;;
6751;SDS011;3413;47.680;9.166;2023-11-19T18:40:50;11.33;;;1.40;;
6751;SDS011;3413;47.680;9.166;2023-11-19T18:46:02;4.00;;;1.70;;
6751;SDS011;3413;47.680;9.166;2023-11-19T18:51:04;5.40;;;2.03;;
6751;SDS011;3413;47.680;9.166;2023-11-19T18:56:07;10.70;;;2.80;;
6751;SDS011;3413;47.680;9.166;2023-11-19T19:01:10;4.00;;;1.77;;
6751;SDS011;3413;47.680;9.166;2023-11-19T19:06:16;10.87;;;2.70;;
6751;SDS011;3413;47.680;9.166;2023-11-19T19:11:18;2.27;;;1.20;;
6751;SDS011;3413;47.680;9.166;2023-11-19T19:16:21;1.93;;;1.10;;
6751;SDS011;3413;47.680;9.166;2023-11-19T19:21:24;2.23;;;1.17;;
6751;SDS011;3413;47.680;9.166;2023-11-19T19:26:26;1.87;;;1.10;;
6751;SDS011;3413;47.680;9.166;2023-11-19T19:31:30;1.83;;;1.00;;
6751;SDS011;3413;47.680;9.166;2023-11-19T19:36:33;3.67;;;1.10;;
6751;SDS011;3413;47.680;9.166;2023-11-19T19:41:35;2.40;;;0.93;;
6751;SDS011;3413;47.680;9.166;2023-11-19T19:46:39;0.90;;;0.63;;
6751;SDS011;3413;47.680;9.166;2023-11-19T19:51:42;1.53;;;0.80;;
6751;SDS011;3413;47.680;9.166;2023-11-19T19:56:44;2.33;;;0.90;;
6751;SDS011;3413;47.680;9.166;2023-11-19T20:01:47;2.20;;;1.00;;
6751;SDS011;3413;47.680;9.166;2023-11-19T20:06:53;1.57;;;0.93;;
6751;SDS011;3413;47.680;9.166;2023-11-19T20:11:56;2.83;;;1.00;;
6751;SDS011;3413;47.680;9.166;2023-11-19T20:16:59;2.43;;;1.20;;
6751;SDS011;3413;47.680;9.166;2023-11-19T20:22:06;1.70;;;0.93;;
6751;SDS011;3413;47.680;9.166;2023-11-19T20:27:08;1.60;;;0.83;;
6751;SDS011;3413;47.680;9.166;2023-11-19T20:32:17;3.33;;;1.10;;
6751;SDS011;3413;47.680;9.166;2023-11-19T20:37:19;1.10;;;0.73;;
6751;SDS011;3413;47.680;9.166;2023-11-19T20:42:22;2.50;;;0.87;;
6751;SDS011;3413;47.680;9.166;2023-11-19T20:47:24;1.20;;;0.70;;
6751;SDS011;3413;47.680;9.166;2023-11-19T20:52:27;1.80;;;0.77;;
6751;SDS011;3413;47.680;9.166;2023-11-19T20:57:29;1.83;;;0.90;;
6751;SDS011;3413;47.680;9.166;2023-11-19T21:02:33;1.00;;;0.70;;
6751;SDS011;3413;47.680;9.166;2023-11-19T21:07:35;1.10;;;0.80;;
6751;SDS011;3413;47.680;9.166;2023-11-19T21:12:38;1.27;;;0.83;;
6751;SDS011;3413;47.680;9.166;2023-11-19T21:17:47;0.90;;;0.60;;
6751;SDS011;3413;47.680;9.166;2023-11-19T21:22:50;1.20;;;0.60;;
6751;SDS011;3413;47.680;9.166;2023-11-19T21:27:52;1.57;;;0.77;;
6751;SDS011;3413;47.680;9.166;2023-11-19T21:32:55;1.07;;;0.80;;
6751;SDS011;3413;47.680;9.166;2023-11-19T21:37:57;1.03;;;0.60;;
6751;SDS011;3413;47.680;9.166;2023-11-19T21:43:01;1.20;;;0.60;;
6751;SDS011;3413;47.680;9.166;2023-11-19T21:48:04;1.00;;;0.60;;
6751;SDS011;3413;47.680;9.166;2023-11-19T21:53:08;1.10;;;0.63;;
6751;SDS011;3413;47.680;9.166;2023-11-19T21:58:10;1.10;;;0.60;;
6751;SDS011;3413;47.680;9.166;2023-11-19T22:03:13;1.93;;;0.73;;
6751;SDS011;3413;47.680;9.166;2023-11-19T22:08:16;3.57;;;0.83;;
6751;SDS011;3413;47.680;9.166;2023-11-19T22:13:20;1.10;;;0.60;;
6751;SDS011;3413;47.680;9.166;2023-11-19T22:18:24;1.20;;;0.70;;
6751;SDS011;3413;47.680;9.166;2023-11-19T22:23:28;1.00;;;0.60;;
6751;SDS011;3413;47.680;9.166;2023-11-19T22:28:34;1.10;;;0.67;;
6751;SDS011;3413;47.680;9.166;2023-11-19T22:33:41;1.00;;;0.67;;
6751;SDS011;3413;47.680;9.166;2023-11-19T22:38:44;0.87;;;0.60;;
6751;SDS011;3413;47.680;9.166;2023-11-19T22:43:46;2.43;;;0.90;;
6751;SDS011;3413;47.680;9.166;2023-11-19T22:48:49;0.90;;;0.60;;
6751;SDS011;3413;47.680;9.166;2023-11-19T22:53:54;3.00;;;0.83;;
6751;SDS011;3413;47.680;9.166;2023-11-19T22:58:58;1.10;;;0.60;;
6751;SDS011;3413;47.680;9.166;2023-11-19T23:04:00;2.70;;;0.60;;
6751;SDS011;3413;47.680;9.166;2023-11-19T23:09:03;0.90;;;0.60;;
6751;SDS011;3413;47.680;9.166;2023-11-19T23:14:07;1.60;;;0.80;;
6751;SDS011;3413;47.680;9.166;2023-11-19T23:19:12;1.00;;;0.80;;
6751;SDS011;3413;47.680;9.166;2023-11-19T23:24:14;5.33;;;0.70;;
6751;SDS011;3413;47.680;9.166;2023-11-19T23:29:19;1.90;;;0.73;;
6751;SDS011;3413;47.680;9.166;2023-11-19T23:34:21;1.03;;;0.73;;
6751;SDS011;3413;47.680;9.166;2023-11-19T23:39:44;1.47;;;0.87;;
6751;SDS011;3413;47.680;9.166;2023-11-19T23:44:48;1.67;;;0.73;;
6751;SDS011;3413;47.680;9.166;2023-11-19T23:49:52;1.07;;;0.60;;
6751;SDS011;3413;47.680;9.166;2023-11-19T23:54:55;1.00;;;0.70;;
6751;SDS011;3413;47.680;9.166;2023-11-19T23:59:57;0.97;;;0.60;;
